CheckWX is a tool to help pilots better visualize weather data.  It is not intended as a substitute for an official pre-flight weather briefing.

02:52:39 UTC

KLAS METAR
Mc Carran International Airport
Las Vegas, Nevada, USA
Current

57 mins ago

KLAS 310156Z 24013G21KT 10SM FEW150 BKN250 32/M04 A2974 RMK AO2 SLP043 ACSL DSNT NW T03171044
Observed
May-31 @ 01:56 UTC
Wind
  • 240° at 13 KTS
  • Gusting to 21 KTS
Visibility
Flight Rules
VFR
Cloud Levels
  • Few at 15,000' AGL
  • Broken at 25,000' AGL
Temperature
32°C / 90°F
Dewpoint
-4°C / 25°F
Humidity
9%
Altimeter
29.74" Hg
Pressure
1007.12 hPa
Previous

2 hours ago

KLAS 310056Z 24015G23KT 10SM FEW150 BKN250 32/M04 A2974 RMK AO2 SLP042 ACSL DSNT SW AND DSNT NW T03221044
Observed
May-31 @ 00:56 UTC
Wind
  • 240° at 15 KTS
  • Gusting to 23 KTS
Visibility
Flight Rules
VFR
Cloud Levels
  • Few at 15,000' AGL
  • Broken at 25,000' AGL
Temperature
32°C / 90°F
Dewpoint
-4°C / 25°F
Humidity
9%
Altimeter
29.74" Hg
Pressure
1007.12 hPa
Previous

3 hours ago

KLAS 302356Z 23014G19KT 10SM FEW150 BKN250 33/M03 A2975 RMK AO2 PK WND 24027/2305 SLP046 ACSL DSNT SW AND DSNT NW T03331033 10378 20333 50000
Observed
May-30 @ 23:56 UTC
Wind
  • 230° at 14 KTS
  • Gusting to 19 KTS
Visibility
Flight Rules
VFR
Cloud Levels
  • Few at 15,000' AGL
  • Broken at 25,000' AGL
Temperature
33°C / 91°F
Dewpoint
-3°C / 27°F
Humidity
10%
Altimeter
29.75" Hg
Pressure
1007.42 hPa